Terminal Aerodrome Forecast
Issued by NWS Duluth, MN

Home | Current Version | Previous Version | Text Only | Print | Product List | Glossary On
Versions: 1 2 3 4 5 6 7 8 9 10 11 12 13 14 15 16
000
FTUS43 KDLH 252100 AAA
TAFINL
TAF AMD
KINL 252103Z 2521/2618 VRB05KT P6SM BKN100
      TEMPO 2521/2524 5SM -RA OVC050
     FM260000 14007KT P6SM VCSH OVC050
      TEMPO 2600/2602 6SM -RA BR OVC030
     FM260200 VRB05KT 3SM BR OVC040
     FM261400 23006KT P6SM OVC040=

USA.gov is the U.S. government's official web portal to all federal, state and local government web resources and services.